Time;durP1;ratioP1;P1;durP2;ratioP2;P2;SDS_P1;SDS_P2;PMS_P1;PMS_P2;Temp;Humidity;BMP_temperature;BMP_pressure;BME280_temperature;BME280_humidity;BME280_pressure;Samples;Min_cycle;Max_cycle;Signal;HPM_P1;HPM_P2
2022/01/20 00:00:16;;;;;;;20.20;2.67;;;;;;;1.14;100.00;102277.38;2107512;28;20047;-64
2022/01/20 00:02:37;;;;;;;10.57;2.58;;;;;;;1.19;100.00;102272.28;2107606;28;20047;-64
2022/01/20 00:03:40;;;;;;;15.43;3.03;;;;;;;1.17;100.00;102276.56;2106752;28;20085;-64
2022/01/20 00:04:50;;;;;;;16.63;2.90;;;;;;;1.17;100.00;102273.09;2106730;28;20054;-64
2022/01/20 00:07:46;;;;;;;12.70;1.77;;;;;;;1.13;100.00;102269.63;2107365;28;20046;-64
2022/01/20 00:23:29;;;;;;;11.52;2.00;;;;;;;0.96;100.00;102284.69;2107420;28;20044;-64
2022/01/20 00:26:57;;;;;;;12.82;2.08;;;;;;;0.88;100.00;102290.53;2107418;28;20039;-64
2022/01/20 00:28:10;;;;;;;10.32;2.15;;;;;;;0.90;100.00;102283.69;2106533;28;20103;-64
2022/01/20 00:29:19;;;;;;;11.77;2.13;;;;;;;0.93;100.00;102282.06;2106805;28;20066;-65
2022/01/20 00:30:43;;;;;;;8.73;2.95;;;;;;;0.90;100.00;102285.44;2106641;28;20020;-64
2022/01/20 00:31:59;;;;;;;12.77;2.63;;;;;;;0.92;100.00;102278.59;2106861;28;20099;-64
2022/01/20 00:34:16;;;;;;;10.93;2.10;;;;;;;0.86;100.00;102287.03;2107288;28;20043;-64
2022/01/20 00:35:28;;;;;;;12.50;2.45;;;;;;;0.92;100.00;102286.31;2106389;28;20078;-65
2022/01/20 00:37:47;;;;;;;15.57;2.30;;;;;;;0.91;100.00;102284.59;2107091;28;20496;-64
2022/01/20 00:38:47;;;;;;;14.60;2.60;;;;;;;0.92;100.00;102283.75;2106475;28;20024;-64
2022/01/20 00:39:48;;;;;;;9.53;2.43;;;;;;;0.90;100.00;102280.28;2106493;28;20028;-64
2022/01/20 00:40:48;;;;;;;17.20;2.72;;;;;;;0.90;100.00;102281.13;2107141;28;20046;-64
2022/01/20 00:41:48;;;;;;;13.10;2.57;;;;;;;0.95;100.00;102296.66;2107084;28;20088;-64
2022/01/20 00:42:49;;;;;;;13.17;2.47;;;;;;;0.96;100.00;102288.09;2107129;28;20027;-64
2022/01/20 00:43:50;;;;;;;7.63;2.30;;;;;;;0.99;100.00;102293.31;2107044;28;20027;-64
2022/01/20 00:44:50;;;;;;;9.33;2.00;;;;;;;1.01;100.00;102291.66;2107059;28;20012;-64
2022/01/20 00:45:51;;;;;;;19.85;2.95;;;;;;;1.00;100.00;102289.91;2107089;28;20020;-64
2022/01/20 00:46:52;;;;;;;19.45;4.38;;;;;;;0.99;100.00;102293.31;2107112;28;20384;-64
2022/01/20 00:47:52;;;;;;;10.10;2.47;;;;;;;0.96;100.00;102287.25;2107097;28;20016;-64
2022/01/20 00:48:52;;;;;;;9.57;2.17;;;;;;;0.96;100.00;102288.09;2107044;28;20059;-64
2022/01/20 00:49:53;;;;;;;13.40;2.70;;;;;;;0.94;100.00;102289.78;2107067;28;20019;-65
2022/01/20 00:50:53;;;;;;;12.27;2.40;;;;;;;0.92;100.00;102278.59;2107046;28;20024;-64
2022/01/20 00:51:53;;;;;;;10.57;1.90;;;;;;;0.91;100.00;102269.16;2107092;28;20031;-64
2022/01/20 00:52:53;;;;;;;12.00;2.30;;;;;;;0.86;100.00;102276.75;2106395;28;20016;-64
2022/01/20 00:53:54;;;;;;;12.97;3.10;;;;;;;0.88;100.00;102274.22;2106249;28;20093;-64
2022/01/20 00:54:54;;;;;;;11.20;2.17;;;;;;;0.93;100.00;102275.22;2106958;28;20043;-64
2022/01/20 00:55:55;;;;;;;11.60;3.23;;;;;;;0.93;100.00;102276.91;2107020;28;20020;-64
2022/01/20 00:56:57;;;;;;;9.68;2.22;;;;;;;0.94;100.00;102279.50;2107030;28;20058;-63
2022/01/20 00:57:57;;;;;;;10.38;2.08;;;;;;;0.94;100.00;102269.22;2107052;28;20020;-64
2022/01/20 00:58:57;;;;;;;7.57;1.90;;;;;;;0.99;100.00;102271.91;2106956;28;20099;-64
2022/01/20 00:59:58;;;;;;;11.07;2.77;;;;;;;1.03;100.00;102274.56;2107044;28;20051;-64
2022/01/20 01:00:58;;;;;;;8.10;2.27;;;;;;;1.02;100.00;102280.53;2107067;28;20103;-64
2022/01/20 01:02:01;;;;;;;6.60;1.80;;;;;;;1.07;100.00;102282.34;2106906;28;20496;-64
2022/01/20 01:03:02;;;;;;;10.57;2.00;;;;;;;1.10;100.00;102287.53;2107239;28;20036;-64
2022/01/20 01:04:02;;;;;;;12.93;3.05;;;;;;;1.14;100.00;102284.19;2107016;28;20100;-63
2022/01/20 01:05:05;;;;;;;14.20;2.85;;;;;;;1.20;100.00;102288.59;2106906;28;20485;-64
2022/01/20 01:08:17;;;;;;;14.88;2.17;;;;;;;1.45;100.00;102302.81;2107472;28;20039;-65
2022/01/20 01:09:18;;;;;;;11.23;3.27;;;;;;;1.51;100.00;102302.91;2107277;28;20389;-64
2022/01/20 01:10:28;;;;;;;12.23;2.22;;;;;;;1.57;100.00;102297.00;2107106;28;20040;-64
2022/01/20 01:11:28;;;;;;;11.65;1.83;;;;;;;1.56;100.00;102296.97;2106923;28;20060;-64
2022/01/20 01:12:37;;;;;;;10.20;2.33;;;;;;;1.59;100.00;102309.91;2106329;28;20031;-64
2022/01/20 01:13:38;;;;;;;9.07;1.67;;;;;;;1.69;100.00;102310.94;2106424;28;20048;-64
2022/01/20 01:14:43;;;;;;;15.77;2.27;;;;;;;1.74;100.00;102305.06;2106895;28;20385;-64
2022/01/20 01:15:47;;;;;;;15.43;3.05;;;;;;;1.75;100.00;102314.50;2106856;28;20377;-64
2022/01/20 01:20:29;;;;;;;9.43;1.88;;;;;;;1.92;100.00;102308.81;2106929;28;20036;-65
2022/01/20 01:21:42;;;;;;;8.35;2.20;;;;;;;1.98;100.00;102316.63;2106768;28;20475;-64
2022/01/20 01:22:42;;;;;;;10.40;2.03;;;;;;;1.95;100.00;102319.13;2106003;28;20654;-64
2022/01/20 01:23:44;;;;;;;9.50;2.00;;;;;;;1.90;100.00;102313.94;2106257;28;20048;-64
2022/01/20 01:24:46;;;;;;;11.38;1.85;;;;;;;1.87;100.00;102310.41;2105639;28;20103;-64
2022/01/20 01:25:46;;;;;;;7.50;2.10;;;;;;;1.82;100.00;102314.63;2105940;28;20024;-63
2022/01/20 01:26:46;;;;;;;11.07;1.95;;;;;;;1.79;100.00;102306.00;2106715;28;20358;-63
2022/01/20 01:27:47;;;;;;;13.00;1.70;;;;;;;1.78;100.00;102312.00;2106711;28;20020;-63
2022/01/20 01:28:49;;;;;;;11.10;1.58;;;;;;;1.80;100.00;102312.91;2105930;28;20036;-64
2022/01/20 01:31:22;;;;;;;10.77;1.80;;;;;;;1.76;100.00;102312.81;2106829;28;20046;-64
2022/01/20 01:32:29;;;;;;;11.88;1.60;;;;;;;1.81;100.00;102306.03;2106607;28;20095;-64
2022/01/20 01:33:33;;;;;;;11.30;2.45;;;;;;;1.76;100.00;102311.09;2106644;28;20073;-64
2022/01/20 01:34:36;;;;;;;6.15;1.15;;;;;;;1.75;100.00;102311.94;2106607;28;20114;-64
2022/01/20 01:35:40;;;;;;;10.23;1.90;;;;;;;1.84;100.00;102315.53;2106705;28;20024;-64
2022/01/20 01:37:36;;;;;;;9.55;1.55;;;;;;;1.85;100.00;102317.25;2106701;28;20027;-64
2022/01/20 01:39:04;;;;;;;11.38;2.33;;;;;;;1.94;100.00;102317.41;2106822;28;20063;-63
2022/01/20 01:40:08;;;;;;;7.33;1.50;;;;;;;1.88;100.00;102318.16;2106760;28;20028;-65
2022/01/20 01:41:17;;;;;;;11.98;1.85;;;;;;;1.77;100.00;102312.84;2106728;28;20026;-65
2022/01/20 01:42:24;;;;;;;9.68;3.28;;;;;;;1.80;100.00;102310.31;2105997;28;20027;-64
2022/01/20 01:43:26;;;;;;;10.82;1.98;;;;;;;1.79;100.00;102316.28;2106177;28;20122;-65
2022/01/20 01:44:29;;;;;;;11.10;1.70;;;;;;;1.72;100.00;102314.47;2105965;28;20028;-65
2022/01/20 01:45:36;;;;;;;7.88;1.73;;;;;;;1.67;100.00;102318.63;2105950;28;20032;-65
2022/01/20 01:46:37;;;;;;;10.80;1.98;;;;;;;1.60;100.00;102319.38;2106642;28;20477;-63
2022/01/20 01:47:38;;;;;;;7.53;1.38;;;;;;;1.61;100.00;102314.25;2106724;28;20028;-64
2022/01/20 01:48:40;;;;;;;7.07;1.43;;;;;;;1.64;100.00;102313.47;2106653;28;20465;-63
2022/01/20 01:49:41;;;;;;;8.07;1.95;;;;;;;1.67;100.00;102318.63;2106526;28;20023;-63
2022/01/20 01:50:41;;;;;;;7.90;1.43;;;;;;;1.65;100.00;102317.75;2106571;28;20024;-64
2022/01/20 01:51:41;;;;;;;9.30;1.63;;;;;;;1.65;100.00;102320.34;2106664;28;20027;-63
2022/01/20 01:52:42;;;;;;;10.30;1.93;;;;;;;1.66;100.00;102316.91;2106561;28;20165;-64
2022/01/20 01:53:43;;;;;;;10.52;1.50;;;;;;;1.65;100.00;102312.63;2106605;28;20027;-63
2022/01/20 01:54:43;;;;;;;6.87;1.50;;;;;;;1.66;100.00;102316.91;2105660;28;20127;-63
2022/01/20 01:55:44;;;;;;;6.37;1.47;;;;;;;1.65;100.00;102316.03;2106022;28;20111;-63
2022/01/20 01:56:47;;;;;;;8.93;1.85;;;;;;;1.66;100.00;102322.06;2106653;28;20028;-64
2022/01/20 01:57:47;;;;;;;6.10;1.45;;;;;;;1.65;100.00;102315.19;2105791;28;20019;-63
2022/01/20 01:58:47;;;;;;;13.37;2.30;;;;;;;1.65;100.00;102320.34;2106047;28;20016;-62
2022/01/20 01:59:48;;;;;;;9.20;1.87;;;;;;;1.63;100.00;102316.84;2106702;28;20217;-63
2022/01/20 02:00:48;;;;;;;8.47;1.37;;;;;;;1.60;100.00;102317.66;2106598;28;20385;-63
2022/01/20 02:01:49;;;;;;;10.80;2.47;;;;;;;1.62;100.00;102317.69;2106511;28;20125;-63
2022/01/20 02:02:49;;;;;;;10.40;3.67;;;;;;;1.64;100.00;102324.59;2105787;28;20027;-63
2022/01/20 02:03:58;;;;;;;11.57;2.03;;;;;;;1.61;100.00;102313.41;2105931;28;20472;-63
2022/01/20 02:04:59;;;;;;;5.05;1.30;;;;;;;1.60;100.00;102314.22;2106513;28;20021;-64
2022/01/20 02:08:59;;;;;;;8.13;1.70;;;;;;;1.58;100.00;102303.03;2097197;28;20020;-64
2022/01/20 02:18:58;;;;;;;7.60;1.13;;;;;;;1.74;100.00;102305.06;2106676;28;20533;-65
2022/01/20 02:19:58;;;;;;;8.40;1.27;;;;;;;1.78;100.00;102312.00;2106649;28;20076;-65
2022/01/20 02:20:59;;;;;;;11.47;1.37;;;;;;;1.84;100.00;102315.53;2106629;28;20066;-64
2022/01/20 02:22:02;;;;;;;9.83;1.70;;;;;;;1.90;100.00;102323.34;2106500;28;20504;-65
2022/01/20 02:23:03;;;;;;;4.90;1.38;;;;;;;1.98;100.00;102318.34;2106589;28;20077;-65
2022/01/20 02:24:03;;;;;;;9.30;1.23;;;;;;;2.03;100.00;102325.31;2106603;28;20125;-64
2022/01/20 02:25:04;;;;;;;5.25;1.25;;;;;;;2.04;100.00;102326.16;2105909;28;20354;-64
2022/01/20 02:26:05;;;;;;;6.80;1.20;;;;;;;2.11;100.00;102333.16;2105813;28;20521;-64
2022/01/20 02:27:05;;;;;;;6.47;1.33;;;;;;;2.22;100.00;102332.47;2105879;28;20389;-64
2022/01/20 02:28:08;;;;;;;6.93;1.20;;;;;;;2.27;100.00;102341.16;2106489;28;20274;-64
2022/01/20 02:29:08;;;;;;;8.43;1.92;;;;;;;2.35;100.00;102333.53;2106480;28;20036;-64
2022/01/20 02:30:09;;;;;;;3.40;1.05;;;;;;;2.47;100.00;102323.44;2106543;28;20016;-64
2022/01/20 02:31:09;;;;;;;4.70;1.00;;;;;;;2.56;100.00;102322.69;2105829;28;20493;-64
2022/01/20 02:32:10;;;;;;;3.27;0.83;;;;;;;2.63;100.00;102323.66;2097616;28;20032;-63
2022/01/20 02:33:16;;;;;;;8.07;2.13;;;;;;;2.69;100.00;102323.75;2105919;28;20024;-64
2022/01/20 02:34:17;;;;;;;14.38;1.95;;;;;;;2.74;100.00;102311.78;2105681;28;20024;-64
2022/01/20 02:35:17;;;;;;;5.78;0.88;;;;;;;2.76;100.00;102310.09;2097418;28;20120;-64
2022/01/20 02:36:19;;;;;;;3.57;1.00;;;;;;;2.79;100.00;102324.75;2105927;28;20039;-64
2022/01/20 02:37:19;;;;;;;7.82;1.30;;;;;;;2.78;100.00;102317.84;2107528;28;20032;-64
2022/01/20 02:39:46;;;;;;;5.10;1.23;;;;;;;2.79;100.00;102315.31;2107651;28;20521;-64
2022/01/20 02:44:56;;;;;;;5.43;0.90;;;;;;;2.65;100.00;102291.91;2108145;28;20016;-62
2022/01/20 02:45:57;;;;;;;7.07;1.00;;;;;;;2.61;100.00;102305.59;2108044;28;20028;-63
2022/01/20 02:46:57;;;;;;;9.43;1.85;;;;;;;2.57;100.00;102299.50;2108056;28;20028;-64
2022/01/20 02:47:58;;;;;;;5.73;1.10;;;;;;;2.57;100.00;102304.66;2107391;28;20102;-64
2022/01/20 02:48:58;;;;;;;9.50;1.57;;;;;;;2.54;100.00;102299.47;2107422;28;20016;-64
2022/01/20 02:49:59;;;;;;;6.87;1.23;;;;;;;2.53;100.00;102300.31;2107999;28;20020;-63
2022/01/20 02:50:59;;;;;;;8.43;2.72;;;;;;;2.51;100.00;102308.88;2107347;28;20293;-64
2022/01/20 02:52:01;;;;;;;7.83;0.97;;;;;;;2.48;100.00;102304.53;2107423;28;20516;-65
2022/01/20 02:53:01;;;;;;;8.13;1.30;;;;;;;2.48;100.00;102309.69;2108084;28;20848;-64
2022/01/20 02:54:03;;;;;;;5.07;0.90;;;;;;;2.48;100.00;102309.69;2107877;28;20475;-65
2022/01/20 02:55:04;;;;;;;5.10;0.88;;;;;;;2.49;100.00;102315.72;2107946;28;20099;-64
2022/01/20 02:56:05;;;;;;;8.10;1.20;;;;;;;2.44;100.00;102311.34;2108036;28;20024;-64
2022/01/20 02:57:05;;;;;;;6.30;0.90;;;;;;;2.40;100.00;102311.28;2108038;28;20036;-65
2022/01/20 02:58:07;;;;;;;10.75;2.03;;;;;;;2.37;100.00;102309.53;2107951;28;20028;-65
2022/01/20 02:59:07;;;;;;;11.48;1.27;;;;;;;2.43;100.00;102304.47;2107910;28;20046;-64
2022/01/20 03:00:08;;;;;;;6.27;1.60;;;;;;;2.36;100.00;102299.22;2108086;28;20110;-65
2022/01/20 03:01:09;;;;;;;7.45;1.08;;;;;;;2.27;100.00;102295.66;2107394;28;20068;-64
2022/01/20 03:02:09;;;;;;;3.90;0.95;;;;;;;2.20;100.00;102301.53;2098792;28;20115;-65
2022/01/20 03:03:10;;;;;;;4.60;0.83;;;;;;;2.18;100.00;102295.47;2107277;28;20073;-64
2022/01/20 03:04:11;;;;;;;6.13;1.00;;;;;;;2.12;100.00;102298.81;2098810;28;20447;-65
2022/01/20 03:05:11;;;;;;;7.68;1.00;;;;;;;2.04;100.00;102296.13;2107199;28;20024;-64
2022/01/20 03:06:12;;;;;;;9.53;2.07;;;;;;;2.00;100.00;102302.06;2098849;28;20036;-64
2022/01/20 03:07:12;;;;;;;7.27;1.53;;;;;;;1.96;100.00;102295.16;2107245;28;20032;-64
2022/01/20 03:08:13;;;;;;;7.30;0.97;;;;;;;1.92;100.00;102289.06;2107883;28;20085;-63
2022/01/20 03:09:13;;;;;;;7.35;1.45;;;;;;;1.90;100.00;102287.31;2107826;28;20024;-64
2022/01/20 03:10:14;;;;;;;9.40;1.43;;;;;;;1.91;100.00;102301.91;2107826;28;20059;-64
2022/01/20 03:11:14;;;;;;;6.82;1.27;;;;;;;1.88;100.00;102291.56;2107732;28;20032;-64
2022/01/20 03:12:15;;;;;;;6.10;1.20;;;;;;;1.88;100.00;102301.88;2107738;28;20081;-64
2022/01/20 03:13:15;;;;;;;8.98;1.50;;;;;;;1.88;100.00;102299.28;2107765;28;20393;-64
2022/01/20 03:14:17;;;;;;;9.03;1.10;;;;;;;1.87;100.00;102294.97;2107757;28;20028;-64
2022/01/20 03:15:17;;;;;;;6.00;1.33;;;;;;;1.87;100.00;102300.13;2107742;28;20405;-65
2022/01/20 03:16:18;;;;;;;7.78;1.52;;;;;;;1.85;100.00;102294.94;2107963;28;20111;-64
2022/01/20 03:17:18;;;;;;;7.53;1.57;;;;;;;1.82;100.00;102300.06;2107805;28;20036;-64
2022/01/20 03:18:18;;;;;;;6.93;1.53;;;;;;;1.74;100.00;102305.06;2107753;28;20370;-64
2022/01/20 03:19:18;;;;;;;10.70;1.70;;;;;;;1.70;100.00;102303.25;2107773;28;20051;-64
2022/01/20 03:20:19;;;;;;;6.53;1.53;;;;;;;1.65;100.00;102299.75;2107804;28;20024;-64
2022/01/20 03:21:19;;;;;;;5.50;1.13;;;;;;;1.58;100.00;102298.78;2107771;28;20496;-64
2022/01/20 03:22:19;;;;;;;5.23;1.33;;;;;;;1.58;100.00;102297.91;2107816;28;20063;-64
2022/01/20 03:23:20;;;;;;;5.10;1.30;;;;;;;1.53;100.00;102295.22;2107688;28;20501;-63
2022/01/20 03:24:20;;;;;;;3.00;0.90;;;;;;;1.47;100.00;102295.97;2107048;28;20044;-64
2022/01/20 03:25:20;;;;;;;7.70;1.63;;;;;;;1.42;100.00;102287.31;2106903;28;20016;-64
2022/01/20 03:26:21;;;;;;;6.70;1.20;;;;;;;1.37;100.00;102283.78;2107040;28;20038;-64
2022/01/20 03:27:21;;;;;;;9.17;1.37;;;;;;;1.35;100.00;102276.03;2107743;28;20099;-63
2022/01/20 03:28:21;;;;;;;6.47;1.03;;;;;;;1.33;100.00;102276.84;2107031;28;20031;-64
2022/01/20 03:29:21;;;;;;;13.17;2.83;;;;;;;1.26;100.00;102275.84;2107020;28;20024;-64
2022/01/20 03:30:23;;;;;;;7.43;1.50;;;;;;;1.24;100.00;102283.56;2107672;28;20027;-64
2022/01/20 03:31:24;;;;;;;4.50;1.02;;;;;;;1.20;100.00;102284.31;2107644;28;20036;-64
2022/01/20 03:32:25;;;;;;;6.40;1.13;;;;;;;1.17;100.00;102286.84;2107586;28;20558;-64
2022/01/20 03:33:25;;;;;;;8.67;1.57;;;;;;;1.17;100.00;102278.25;2106904;28;20115;-64
2022/01/20 03:34:26;;;;;;;6.53;1.20;;;;;;;1.18;100.00;102278.28;2106946;28;20023;-64
2022/01/20 03:35:26;;;;;;;8.52;1.67;;;;;;;1.13;100.00;102278.19;2107539;28;20028;-64
2022/01/20 03:36:26;;;;;;;5.57;1.57;;;;;;;1.10;100.00;102278.09;2107625;28;20035;-64
2022/01/20 03:37:27;;;;;;;8.17;1.30;;;;;;;1.05;100.00;102279.72;2107568;28;20075;-64
2022/01/20 03:38:27;;;;;;;10.07;1.57;;;;;;;1.03;100.00;102282.25;2107507;28;20020;-64
2022/01/20 03:39:27;;;;;;;10.23;1.93;;;;;;;1.02;100.00;102283.09;2107590;28;20039;-64
2022/01/20 03:40:28;;;;;;;6.57;1.47;;;;;;;1.05;100.00;102281.41;2107672;28;20107;-64
2022/01/20 03:41:28;;;;;;;10.33;2.23;;;;;;;1.06;100.00;102280.59;2106777;28;20028;-64
2022/01/20 03:42:28;;;;;;;5.53;1.47;;;;;;;1.02;100.00;102275.41;2106932;28;20028;-64
2022/01/20 03:43:29;;;;;;;9.10;2.30;;;;;;;1.03;100.00;102271.97;2107579;28;20458;-64
2022/01/20 03:44:29;;;;;;;10.00;1.67;;;;;;;1.02;100.00;102280.53;2107550;28;20037;-64
2022/01/20 03:45:30;;;;;;;8.45;1.50;;;;;;;1.01;100.00;102276.25;2107511;28;20296;-64
2022/01/20 03:46:31;;;;;;;7.97;1.27;;;;;;;1.06;100.00;102278.03;2107553;28;20517;-64
2022/01/20 03:47:31;;;;;;;10.10;1.65;;;;;;;1.15;100.00;102279.09;2107283;28;20047;-64
2022/01/20 03:48:38;;;;;;;7.37;1.43;;;;;;;1.22;100.00;102285.22;2107360;28;20084;-64
2022/01/20 03:51:58;;;;;;;11.27;1.65;;;;;;;1.37;100.00;102289.78;2107537;28;20294;-64
2022/01/20 03:52:58;;;;;;;9.23;1.43;;;;;;;1.43;100.00;102276.16;2107509;28;20016;-64
2022/01/20 03:53:59;;;;;;;12.50;2.17;;;;;;;1.48;100.00;102281.41;2106719;28;20035;-65
2022/01/20 03:54:59;;;;;;;8.38;1.50;;;;;;;1.49;100.00;102278.88;2106839;28;20498;-65
2022/01/20 03:56:00;;;;;;;11.57;1.37;;;;;;;1.52;100.00;102278.94;2107556;28;20023;-63
2022/01/20 03:57:00;;;;;;;5.75;1.42;;;;;;;1.52;100.00;102284.09;2107585;28;20428;-63
2022/01/20 03:58:00;;;;;;;9.33;1.73;;;;;;;1.51;100.00;102277.19;2107508;28;20034;-64
2022/01/20 03:59:00;;;;;;;10.23;1.93;;;;;;;1.50;100.00;102275.47;2106784;28;20035;-63
2022/01/20 04:00:03;;;;;;;10.00;1.37;;;;;;;1.49;100.00;102276.31;2106798;28;20062;-63
2022/01/20 04:01:03;;;;;;;13.05;2.35;;;;;;;1.47;100.00;102279.69;2107410;28;20024;-64
2022/01/20 04:02:05;;;;;;;6.37;1.23;;;;;;;1.46;100.00;102275.34;2107487;28;20158;-63
2022/01/20 04:03:05;;;;;;;;;;;;;;;1.41;100.00;102280.44;2107934;28;20365;-64
2022/01/20 04:04:05;;;;;;;8.65;1.23;;;;;;;1.38;100.00;102282.94;2107454;28;19962;-64
2022/01/20 04:05:06;;;;;;;9.23;2.00;;;;;;;1.39;100.00;102276.97;2107480;28;20046;-64
2022/01/20 04:06:07;;;;;;;11.85;1.63;;;;;;;1.37;100.00;102276.06;2107450;28;20465;-64
2022/01/20 04:07:07;;;;;;;14.63;2.38;;;;;;;1.36;100.00;102276.88;2107472;28;20473;-64
2022/01/20 04:08:07;;;;;;;14.27;1.50;;;;;;;1.36;100.00;102276.88;2106760;28;20489;-64
2022/01/20 04:09:08;;;;;;;7.27;1.63;;;;;;;1.35;100.00;102285.44;2106909;28;20028;-64
2022/01/20 04:10:08;;;;;;;7.13;1.87;;;;;;;1.33;100.00;102282.00;2106667;28;20024;-64
2022/01/20 04:11:21;;;;;;;12.52;2.45;;;;;;;1.36;100.00;102289.75;2106843;28;20020;-64
2022/01/20 04:12:21;;;;;;;7.20;1.38;;;;;;;1.35;100.00;102285.44;2106698;28;20467;-64
2022/01/20 04:13:22;;;;;;;7.50;1.50;;;;;;;1.36;100.00;102288.06;2106694;28;20036;-63
2022/01/20 04:14:24;;;;;;;6.00;1.13;;;;;;;1.37;100.00;102294.09;2107280;28;20077;-64
2022/01/20 04:15:28;;;;;;;5.57;1.30;;;;;;;1.38;100.00;102304.41;2107155;28;20020;-64
2022/01/20 04:16:50;;;;;;;18.85;1.90;;;;;;;1.43;100.00;102295.91;2107262;28;20051;-64
2022/01/20 04:17:55;;;;;;;12.02;2.20;;;;;;;1.47;100.00;102295.97;2107320;28;20020;-63
2022/01/20 04:18:56;;;;;;;9.70;1.77;;;;;;;1.52;100.00;102299.53;2107214;28;20461;-63
2022/01/20 04:19:57;;;;;;;;;;;;;;;1.56;100.00;102299.56;2107765;28;20035;-63
2022/01/20 04:20:57;;;;;;;10.73;1.38;;;;;;;1.58;100.00;102298.78;2107332;28;19966;-63
2022/01/20 04:21:59;;;;;;;9.30;1.73;;;;;;;1.61;100.00;102303.09;2106724;28;20046;-64
2022/01/20 04:23:00;;;;;;;8.40;1.38;;;;;;;1.66;100.00;102294.63;2106703;28;20485;-64
2022/01/20 04:24:02;;;;;;;5.75;1.20;;;;;;;1.71;100.00;102299.84;2107252;28;20066;-64
2022/01/20 04:25:04;;;;;;;10.02;1.48;;;;;;;1.73;100.00;102302.44;2107267;28;20103;-64
2022/01/20 04:26:04;;;;;;;;;;;;;;;1.78;100.00;102303.41;2107646;28;20403;-64
2022/01/20 04:27:05;;;;;;;10.23;1.05;;;;;;;1.82;100.00;102297.47;2107299;28;19943;-64
2022/01/20 04:28:05;;;;;;;5.60;1.17;;;;;;;1.89;100.00;102303.59;2107262;28;20031;-64
2022/01/20 04:29:07;;;;;;;9.10;1.70;;;;;;;1.94;100.00;102304.53;2107250;28;20469;-64
2022/01/20 04:30:08;;;;;;;10.10;1.85;;;;;;;2.03;100.00;102312.44;2107202;28;20031;-65
2022/01/20 04:31:08;;;;;;;8.07;1.30;;;;;;;2.11;100.00;102319.41;2107363;28;20046;-65
2022/01/20 04:32:09;;;;;;;6.95;1.30;;;;;;;2.15;100.00;102322.06;2107236;28;20020;-64
2022/01/20 04:33:09;;;;;;;10.50;1.73;;;;;;;2.16;100.00;102325.53;2107285;28;20500;-64
2022/01/20 04:34:10;;;;;;;6.97;1.30;;;;;;;2.15;100.00;102321.19;2107206;28;20109;-63
2022/01/20 04:35:11;;;;;;;7.60;1.60;;;;;;;2.15;100.00;102321.19;2106465;28;20034;-63
2022/01/20 04:36:11;;;;;;;14.87;3.50;;;;;;;2.14;100.00;102325.50;2098058;28;20035;-63
2022/01/20 04:37:12;;;;;;;10.77;1.20;;;;;;;2.13;100.00;102317.72;2106586;28;20153;-63
2022/01/20 04:38:13;;;;;;;;;;;;;;;2.14;100.00;102327.19;2107528;28;20028;-63
2022/01/20 04:39:16;;;;;;;8.88;1.00;;;;;;;2.13;100.00;102333.19;2107190;28;20440;-63
2022/01/20 04:40:17;;;;;;;8.88;1.50;;;;;;;2.13;100.00;102333.19;2107035;28;20020;-64
2022/01/20 04:41:17;;;;;;;5.53;1.60;;;;;;;2.10;100.00;102343.44;2107082;28;20110;-64
2022/01/20 04:42:19;;;;;;;5.13;1.90;;;;;;;2.08;100.00;102350.28;2107213;28;20051;-63
2022/01/20 04:43:20;;;;;;;13.82;1.73;;;;;;;2.05;100.00;102344.22;2106448;28;20190;-63
2022/01/20 04:44:36;;;;;;;8.45;2.03;;;;;;;2.01;100.00;102345.00;2098119;28;20158;-64
2022/01/20 04:45:46;;;;;;;9.43;1.40;;;;;;;2.00;100.00;102314.97;2100227;28;20025;-63
2022/01/20 04:47:06;;;;;;;7.05;2.22;;;;;;;2.03;100.00;102315.00;2106613;28;20031;-62
2022/01/20 04:57:01;;;;;;;5.35;1.25;;;;;;;2.07;100.00;102321.06;2106295;28;20039;-62
2022/01/20 04:57:30;;;;;;;8.57;1.90;;;;;;;2.02;100.00;102320.97;2106957;28;20071;-63
2022/01/20 04:58:30;;;;;;;6.47;1.30;;;;;;;2.08;100.00;102329.69;2107055;28;20028;-62
2022/01/20 04:59:32;;;;;;;10.13;1.90;;;;;;;2.09;100.00;102331.41;2106543;28;20042;-62
2022/01/20 05:00:32;;;;;;;4.55;1.20;;;;;;;2.08;100.00;102333.09;2106805;28;20103;-62
2022/01/20 05:01:32;;;;;;;8.50;1.33;;;;;;;2.05;100.00;102331.34;2106942;28;20496;-62
2022/01/20 05:02:33;;;;;;;8.07;1.57;;;;;;;2.09;100.00;102333.97;2107032;28;20048;-63
2022/01/20 05:03:33;;;;;;;14.53;1.80;;;;;;;2.11;100.00;102342.59;2107018;28;20031;-62
2022/01/20 05:04:34;;;;;;;15.43;2.03;;;;;;;2.09;100.00;102341.72;2107008;28;20367;-63
2022/01/20 05:05:35;;;;;;;11.05;1.90;;;;;;;2.09;100.00;102347.69;2106904;28;20031;-63
2022/01/20 05:06:39;;;;;;;8.10;2.07;;;;;;;2.11;100.00;102353.75;2107008;28;20108;-63
2022/01/20 05:07:39;;;;;;;8.00;1.45;;;;;;;2.15;100.00;102357.25;2106234;28;20478;-62
2022/01/20 05:08:39;;;;;;;11.20;2.33;;;;;;;2.15;100.00;102357.25;2106345;28;20027;-63
2022/01/20 05:09:40;;;;;;;8.07;1.47;;;;;;;2.15;100.00;102362.41;2106948;28;20067;-63
2022/01/20 05:10:40;;;;;;;9.90;1.87;;;;;;;2.17;100.00;102363.31;2106356;28;20849;-63
2022/01/20 05:11:43;;;;;;;15.17;2.73;;;;;;;2.18;100.00;102367.59;2106351;28;20024;-63
2022/01/20 05:13:52;;;;;;;10.95;1.33;;;;;;;2.17;100.00;102360.72;2106892;28;20032;-62
2022/01/20 05:14:54;;;;;;;11.43;1.73;;;;;;;2.16;100.00;102364.16;2106837;28;20016;-62
2022/01/20 05:15:55;;;;;;;10.32;1.92;;;;;;;2.18;100.00;102365.03;2106931;28;20266;-62
2022/01/20 05:16:56;;;;;;;11.87;1.87;;;;;;;2.21;100.00;102366.78;2106898;28;20366;-62
2022/01/20 05:17:56;;;;;;;7.40;1.17;;;;;;;2.22;100.00;102361.66;2106860;28;20098;-62
2022/01/20 05:18:57;;;;;;;10.30;1.40;;;;;;;2.24;100.00;102356.53;2106893;28;20043;-62
2022/01/20 05:19:57;;;;;;;11.87;1.80;;;;;;;2.24;100.00;102354.84;2106735;28;20430;-62
2022/01/20 05:20:57;;;;;;;8.30;1.53;;;;;;;2.24;100.00;102357.44;2106843;28;20314;-62
2022/01/20 05:21:59;;;;;;;14.30;2.10;;;;;;;2.26;100.00;102362.59;2106854;28;20030;-62
2022/01/20 05:22:59;;;;;;;8.57;1.92;;;;;;;2.26;100.00;102366.03;2106802;28;20371;-62
2022/01/20 05:24:00;;;;;;;10.47;2.67;;;;;;;2.28;100.00;102374.66;2106169;28;20551;-62
2022/01/20 05:25:02;;;;;;;12.57;1.70;;;;;;;2.29;100.00;102375.53;2106116;28;20109;-62
2022/01/20 05:26:02;;;;;;;16.90;2.05;;;;;;;2.29;100.00;102375.53;2106774;28;20050;-63
2022/01/20 05:27:03;;;;;;;11.53;1.60;;;;;;;2.28;100.00;102374.66;2106768;28;20024;-63
2022/01/20 05:28:03;;;;;;;10.27;2.73;;;;;;;2.30;100.00;102377.28;2106782;28;20027;-63
2022/01/20 05:29:03;;;;;;;9.47;1.67;;;;;;;2.31;100.00;102376.41;2106771;28;20097;-63
2022/01/20 05:30:04;;;;;;;10.33;1.73;;;;;;;2.30;100.00;102375.53;2106798;28;20063;-63
2022/01/20 05:31:04;;;;;;;9.70;2.28;;;;;;;2.31;100.00;102379.00;2106129;28;20028;-63
2022/01/20 05:32:05;;;;;;;10.57;2.57;;;;;;;2.34;100.00;102378.19;2106130;28;20035;-62
2022/01/20 05:33:06;;;;;;;12.45;2.22;;;;;;;2.34;100.00;102383.34;2106723;28;20123;-63
2022/01/20 05:34:06;;;;;;;11.48;2.00;;;;;;;2.34;100.00;102379.06;2106721;28;20023;-63
2022/01/20 05:35:07;;;;;;;8.13;1.80;;;;;;;2.33;100.00;102381.59;2106799;28;20479;-62
2022/01/20 05:36:07;;;;;;;12.80;1.65;;;;;;;2.34;100.00;102373.91;2106758;28;20339;-63
2022/01/20 05:37:08;;;;;;;11.83;2.17;;;;;;;2.39;100.00;102372.25;2106784;28;20103;-63
2022/01/20 05:38:08;;;;;;;8.93;1.80;;;;;;;2.41;100.00;102370.59;2106613;28;20036;-63
2022/01/20 05:39:09;;;;;;;15.93;1.87;;;;;;;2.42;100.00;102368.88;2106075;28;20485;-63
2022/01/20 05:40:09;;;;;;;15.70;1.77;;;;;;;2.41;100.00;102380.03;2106144;28;20024;-63
2022/01/20 05:41:09;;;;;;;11.65;2.03;;;;;;;2.45;100.00;102381.81;2106766;28;20372;-63
2022/01/20 05:42:10;;;;;;;13.80;1.77;;;;;;;2.47;100.00;102389.56;2106764;28;20023;-63
2022/01/20 05:43:10;;;;;;;8.40;1.87;;;;;;;2.47;100.00;102398.19;2106769;28;20035;-63
2022/01/20 05:44:11;;;;;;;6.72;2.03;;;;;;;2.51;100.00;102401.66;2106842;28;20092;-62
2022/01/20 05:45:14;;;;;;;12.43;1.73;;;;;;;2.49;100.00;102398.19;2106735;28;20485;-62
2022/01/20 05:46:17;;;;;;;4.68;1.33;;;;;;;2.48;100.00;102396.44;2106804;28;20024;-63